Time,TemperatureF,DewpointF,PressureIn,WindDirection,WindDirectionDegrees,WindSpeedMPH,WindSpeedGustMPH,Humidity,HourlyPrecipIn,Conditions,Clouds,dailyrainin,SolarRadiationWatts/m^2,SoftwareType,DateUTC
2013-01-22 00:52:00,51.0,-14.0,-100.00,North,2,6.0,8.0,6,0.00,,,0.00,0.000000,,2013-01-22 08:52:00,
2013-01-22 01:52:00,48.0,-13.0,-100.00,NNE,18,9.0,11.0,7,0.00,,,0.00,0.000000,,2013-01-22 09:52:00,
2013-01-22 02:52:00,48.0,-13.0,-100.00,NNE,22,9.0,12.0,7,-99.99,,,0.00,0.000000,,2013-01-22 10:52:00,
2013-01-22 03:53:00,49.0,-12.0,-100.00,NNE,22,10.0,13.0,7,0.00,,,0.00,0.000000,,2013-01-22 11:53:00,
2013-01-22 04:53:00,51.0,-11.0,-100.00,ENE,68,11.0,16.0,7,0.00,,,0.00,0.000000,,2013-01-22 12:53:00,
2013-01-22 05:53:00,48.0,-10.0,-100.00,ENE,63,8.0,14.0,8,0.00,,,-99.99,0.000000,,2013-01-22 13:53:00,
2013-01-22 06:53:00,47.0,-7.0,-100.00,East,96,4.0,12.0,10,0.00,,,0.00,0.000000,,2013-01-22 14:53:00,
2013-01-22 07:03:00,47.0,-7.0,-100.00,East,96,4.0,12.0,10,0.00,,,0.00,0.000000,,2013-01-22 15:03:00,
2013-01-22 07:12:00,47.0,-7.0,-100.00,East,96,4.0,12.0,10,0.00,,,0.00,0.000000,,2013-01-22 15:12:00,
2013-01-22 07:22:00,47.0,-7.0,-100.00,East,96,4.0,12.0,10,0.00,,,0.00,0.000000,,2013-01-22 15:22:00,
2013-01-22 07:53:00,49.0,-5.0,-100.00,SE,140,4.0,8.0,10,0.00,,,0.00,11.000000,,2013-01-22 15:53:00,
2013-01-22 08:03:00,49.0,-5.0,-100.00,SE,140,4.0,8.0,10,0.00,,,0.00,11.000000,,2013-01-22 16:03:00,
2013-01-22 08:13:00,49.0,-5.0,-100.00,SE,140,4.0,8.0,10,0.00,,,0.00,11.000000,,2013-01-22 16:13:00,
2013-01-22 08:23:00,49.0,-5.0,-100.00,SE,140,4.0,8.0,10,0.00,,,0.00,11.000000,,2013-01-22 16:23:00,
2013-01-22 08:54:00,51.0,-6.0,-100.00,NNW,346,2.0,8.0,9,0.00,,,0.00,181.000000,,2013-01-22 16:54:00,
2013-01-22 09:03:00,51.0,-6.0,-100.00,NNW,346,2.0,8.0,9,0.00,,,0.00,181.000000,,2013-01-22 17:03:00,
2013-01-22 09:12:00,51.0,-6.0,-100.00,NNW,346,2.0,8.0,9,0.00,,,0.00,181.000000,,2013-01-22 17:12:00,
2013-01-22 09:22:00,51.0,-6.0,-100.00,NNW,346,2.0,8.0,9,0.00,,,0.00,181.000000,,2013-01-22 17:22:00,
2013-01-22 09:53:00,49.0,-7.0,-100.00,North,359,7.0,9.0,9,0.00,,,0.00,401.000000,,2013-01-22 17:53:00,
2013-01-22 10:54:00,52.0,-7.0,-100.00,NNE,21,10.0,15.0,8,0.00,,,0.00,591.000000,,2013-01-22 18:54:00,
2013-01-22 11:54:00,56.0,-7.0,-100.00,NNE,24,10.0,17.0,7,0.00,,,0.00,705.000000,,2013-01-22 19:54:00,
2013-01-22 12:53:00,55.0,-8.0,-100.00,NNE,20,10.0,18.0,7,0.00,,,0.00,738.000000,,2013-01-22 20:53:00,
2013-01-22 13:53:00,57.0,-10.0,-100.00,NE,53,7.0,14.0,6,0.00,,,0.00,711.000000,,2013-01-22 21:53:00,
2013-01-22 14:53:00,58.0,-9.0,-100.00,NE,34,7.0,15.0,6,0.00,,,0.00,628.000000,,2013-01-22 22:53:00,
2013-01-22 15:53:00,57.0,-10.0,-100.00,NE,38,5.0,11.0,6,0.00,,,0.00,357.000000,,2013-01-22 23:53:00,
2013-01-22 16:52:00,57.0,-6.0,-100.00,NNE,29,1.0,9.0,7,0.00,,,0.00,199.000000,,2013-01-23 00:52:00,
2013-01-22 17:03:00,57.0,-6.0,-100.00,NNE,29,1.0,9.0,7,0.00,,,0.00,199.000000,,2013-01-23 01:03:00,
2013-01-22 17:13:00,57.0,-6.0,-100.00,NNE,29,1.0,9.0,7,0.00,,,0.00,199.000000,,2013-01-23 01:13:00,
2013-01-22 17:22:00,57.0,-6.0,-100.00,NNE,29,1.0,9.0,7,0.00,,,0.00,199.000000,,2013-01-23 01:22:00,
2013-01-22 17:53:00,51.0,-6.0,-100.00,ENE,60,5.0,9.0,9,0.00,,,0.00,32.000000,,2013-01-23 01:53:00,
2013-01-22 18:03:00,51.0,-6.0,-100.00,ENE,60,5.0,9.0,9,0.00,,,0.00,32.000000,,2013-01-23 02:03:00,
2013-01-22 18:12:00,51.0,-6.0,-100.00,ENE,60,5.0,9.0,9,0.00,,,0.00,32.000000,,2013-01-23 02:12:00,
2013-01-22 18:22:00,51.0,-6.0,-100.00,ENE,60,5.0,9.0,9,0.00,,,0.00,32.000000,,2013-01-23 02:22:00,
2013-01-22 18:53:00,51.0,-6.0,-100.00,ENE,76,1.0,8.0,9,0.00,,,0.00,0.000000,,2013-01-23 02:53:00,
2013-01-22 19:03:00,51.0,-6.0,-100.00,ENE,76,1.0,8.0,9,0.00,,,0.00,0.000000,,2013-01-23 03:03:00,
2013-01-22 19:12:00,51.0,-6.0,-100.00,ENE,76,1.0,8.0,9,0.00,,,0.00,0.000000,,2013-01-23 03:12:00,
2013-01-22 19:22:00,51.0,-6.0,-100.00,ENE,76,1.0,8.0,9,0.00,,,0.00,0.000000,,2013-01-23 03:22:00,
2013-01-22 19:53:00,51.0,-6.0,-100.00,East,84,4.0,10.0,9,0.00,,,0.00,0.000000,,2013-01-23 03:53:00,
2013-01-22 20:03:00,51.0,-6.0,-100.00,East,84,4.0,10.0,9,0.00,,,0.00,0.000000,,2013-01-23 04:03:00,
2013-01-22 20:53:00,51.0,-6.0,-100.00,East,101,5.0,7.0,9,0.00,,,0.00,0.000000,,2013-01-23 04:53:00,
2013-01-22 21:53:00,52.0,-5.0,-100.00,East,82,4.0,8.0,9,0.00,,,0.00,0.000000,,2013-01-23 05:53:00,
2013-01-22 22:02:00,52.0,-5.0,-100.00,East,82,4.0,8.0,9,0.00,,,0.00,0.000000,,2013-01-23 06:02:00,
2013-01-22 22:12:00,52.0,-5.0,-100.00,East,82,4.0,8.0,9,0.00,,,0.00,0.000000,,2013-01-23 06:12:00,
2013-01-22 22:22:00,52.0,-5.0,-100.00,East,82,4.0,8.0,9,0.00,,,0.00,0.000000,,2013-01-23 06:22:00,
2013-01-22 22:53:00,52.0,-3.0,-100.00,ENE,64,4.0,8.0,10,0.00,,,0.00,0.000000,,2013-01-23 06:53:00,
2013-01-22 23:02:00,52.0,-3.0,-100.00,ENE,64,4.0,8.0,10,0.00,,,0.00,0.000000,,2013-01-23 07:02:00,
2013-01-22 23:12:00,52.0,-3.0,-100.00,ENE,64,4.0,8.0,10,0.00,,,0.00,0.000000,,2013-01-23 07:12:00,
2013-01-22 23:22:00,52.0,-3.0,-100.00,ENE,64,4.0,8.0,10,0.00,,,0.00,0.000000,,2013-01-23 07:22:00,
2013-01-22 23:53:00,50.0,-7.0,-100.00,ENE,76,5.0,9.0,9,0.00,,,0.00,0.000000,,2013-01-23 07:53:00,